sensor_id;sensor_type;location;lat;lon;timestamp;temperature;humidity
21271;DHT22;10795;50.796;3.860;2023-03-16T00:30:00;7.50;99.90
21271;DHT22;10795;50.796;3.860;2023-03-16T00:37:47;7.50;99.90
21271;DHT22;10795;50.796;3.860;2023-03-16T00:40:47;7.20;99.90
21271;DHT22;10795;50.796;3.860;2023-03-16T00:52:11;7.00;99.90
21271;DHT22;10795;50.796;3.860;2023-03-16T00:55:20;6.90;99.90
21271;DHT22;10795;50.796;3.860;2023-03-16T00:58:45;6.90;99.90
21271;DHT22;10795;50.796;3.860;2023-03-16T01:02:24;6.80;99.90
21271;DHT22;10795;50.796;3.860;2023-03-16T01:09:43;7.00;99.90
21271;DHT22;10795;50.796;3.860;2023-03-16T01:16:57;6.80;99.90
21271;DHT22;10795;50.796;3.860;2023-03-16T01:27:07;6.50;99.90
21271;DHT22;10795;50.796;3.860;2023-03-16T01:30:00;6.60;99.90
21271;DHT22;10795;50.796;3.860;2023-03-16T01:32:27;6.70;99.90
21271;DHT22;10795;50.796;3.860;2023-03-16T01:35:01;6.70;99.90
21271;DHT22;10795;50.796;3.860;2023-03-16T01:37:31;6.90;99.90
21271;DHT22;10795;50.796;3.860;2023-03-16T01:40:22;6.80;99.90
21271;DHT22;10795;50.796;3.860;2023-03-16T01:43:13;6.60;99.90
21271;DHT22;10795;50.796;3.860;2023-03-16T01:51:58;6.40;99.90
21271;DHT22;10795;50.796;3.860;2023-03-16T01:54:46;6.60;99.90
21271;DHT22;10795;50.796;3.860;2023-03-16T01:57:24;6.50;99.90
21271;DHT22;10795;50.796;3.860;2023-03-16T02:00:04;6.40;99.90
21271;DHT22;10795;50.796;3.860;2023-03-16T02:02:55;6.50;99.90
21271;DHT22;10795;50.796;3.860;2023-03-16T02:05:50;6.30;99.90
21271;DHT22;10795;50.796;3.860;2023-03-16T02:08:46;6.30;99.90
21271;DHT22;10795;50.796;3.860;2023-03-16T02:11:28;6.30;99.90
21271;DHT22;10795;50.796;3.860;2023-03-16T02:14:11;6.30;99.90
21271;DHT22;10795;50.796;3.860;2023-03-16T02:16:47;6.30;99.90
21271;DHT22;10795;50.796;3.860;2023-03-16T02:29:59;6.30;99.90
21271;DHT22;10795;50.796;3.860;2023-03-16T06:42:10;6.70;99.90
21271;DHT22;10795;50.796;3.860;2023-03-16T06:44:37;6.60;99.90
21271;DHT22;10795;50.796;3.860;2023-03-16T06:47:11;6.60;99.90
21271;DHT22;10795;50.796;3.860;2023-03-16T06:49:37;6.80;99.90
21271;DHT22;10795;50.796;3.860;2023-03-16T06:52:12;6.80;99.90
21271;DHT22;10795;50.796;3.860;2023-03-16T06:54:41;6.80;99.90
21271;DHT22;10795;50.796;3.860;2023-03-16T06:57:16;6.70;99.90
21271;DHT22;10795;50.796;3.860;2023-03-16T06:59:42;6.70;99.90
21271;DHT22;10795;50.796;3.860;2023-03-16T08:03:39;9.50;99.90
21271;DHT22;10795;50.796;3.860;2023-03-16T08:10:19;9.50;99.90
21271;DHT22;10795;50.796;3.860;2023-03-16T08:13:22;9.20;99.90
21271;DHT22;10795;50.796;3.860;2023-03-16T08:16:45;9.40;99.90
21271;DHT22;10795;50.796;3.860;2023-03-16T08:23:34;9.30;99.90
21271;DHT22;10795;50.796;3.860;2023-03-16T08:26:14;9.40;99.90
21271;DHT22;10795;50.796;3.860;2023-03-16T08:28:42;9.50;99.90
21271;DHT22;10795;50.796;3.860;2023-03-16T08:31:28;9.80;99.90
21271;DHT22;10795;50.796;3.860;2023-03-16T08:34:13;9.90;99.90
21271;DHT22;10795;50.796;3.860;2023-03-16T08:36:53;10.10;99.90
21271;DHT22;10795;50.796;3.860;2023-03-16T08:39:22;10.20;99.90
21271;DHT22;10795;50.796;3.860;2023-03-16T08:41:49;10.50;99.90
21271;DHT22;10795;50.796;3.860;2023-03-16T08:44:25;10.50;99.90
21271;DHT22;10795;50.796;3.860;2023-03-16T08:46:51;10.30;99.90
21271;DHT22;10795;50.796;3.860;2023-03-16T08:49:21;9.90;99.90
21271;DHT22;10795;50.796;3.860;2023-03-16T08:51:57;9.90;99.90
21271;DHT22;10795;50.796;3.860;2023-03-16T08:54:27;9.80;99.90
21271;DHT22;10795;50.796;3.860;2023-03-16T08:56:53;9.80;99.90
21271;DHT22;10795;50.796;3.860;2023-03-16T08:59:22;10.10;99.90
21271;DHT22;10795;50.796;3.860;2023-03-16T09:01:59;9.80;99.90
21271;DHT22;10795;50.796;3.860;2023-03-16T09:04:25;10.50;99.90
21271;DHT22;10795;50.796;3.860;2023-03-16T09:06:55;10.30;99.90
21271;DHT22;10795;50.796;3.860;2023-03-16T09:09:21;10.70;99.90
21271;DHT22;10795;50.796;3.860;2023-03-16T09:11:47;10.60;99.90
21271;DHT22;10795;50.796;3.860;2023-03-16T09:14:14;10.90;99.90
21271;DHT22;10795;50.796;3.860;2023-03-16T09:16:40;10.90;99.90
21271;DHT22;10795;50.796;3.860;2023-03-16T09:19:09;11.10;99.90
21271;DHT22;10795;50.796;3.860;2023-03-16T09:21:36;11.00;99.90
21271;DHT22;10795;50.796;3.860;2023-03-16T09:24:02;11.30;99.90
21271;DHT22;10795;50.796;3.860;2023-03-16T09:26:36;11.60;99.90
21271;DHT22;10795;50.796;3.860;2023-03-16T09:29:07;11.90;99.90
21271;DHT22;10795;50.796;3.860;2023-03-16T09:31:33;11.90;99.90
21271;DHT22;10795;50.796;3.860;2023-03-16T09:34:01;12.30;99.90
21271;DHT22;10795;50.796;3.860;2023-03-16T09:36:27;12.40;99.90
21271;DHT22;10795;50.796;3.860;2023-03-16T09:38:53;12.50;99.90
21271;DHT22;10795;50.796;3.860;2023-03-16T09:46:49;12.10;99.90
21271;DHT22;10795;50.796;3.860;2023-03-16T09:49:20;12.70;99.90
21271;DHT22;10795;50.796;3.860;2023-03-16T09:57:26;13.90;99.90
21271;DHT22;10795;50.796;3.860;2023-03-16T09:59:54;13.20;99.90
21271;DHT22;10795;50.796;3.860;2023-03-16T10:02:45;13.70;99.90
21271;DHT22;10795;50.796;3.860;2023-03-16T10:05:16;13.50;99.90
21271;DHT22;10795;50.796;3.860;2023-03-16T10:10:31;13.60;99.90
21271;DHT22;10795;50.796;3.860;2023-03-16T10:13:00;13.40;99.90
21271;DHT22;10795;50.796;3.860;2023-03-16T10:15:31;13.50;99.90
21271;DHT22;10795;50.796;3.860;2023-03-16T10:18:04;13.40;99.90
21271;DHT22;10795;50.796;3.860;2023-03-16T10:20:33;13.30;99.90
21271;DHT22;10795;50.796;3.860;2023-03-16T10:23:00;13.50;99.90
21271;DHT22;10795;50.796;3.860;2023-03-16T10:28:05;14.00;99.90
21271;DHT22;10795;50.796;3.860;2023-03-16T10:30:33;14.10;99.90
21271;DHT22;10795;50.796;3.860;2023-03-16T10:33:02;14.10;99.90
21271;DHT22;10795;50.796;3.860;2023-03-16T10:35:50;14.30;99.90
21271;DHT22;10795;50.796;3.860;2023-03-16T10:40:58;13.40;99.90
21271;DHT22;10795;50.796;3.860;2023-03-16T10:43:25;14.00;99.90
21271;DHT22;10795;50.796;3.860;2023-03-16T10:45:57;13.80;99.90
21271;DHT22;10795;50.796;3.860;2023-03-16T10:48:25;14.10;99.90
21271;DHT22;10795;50.796;3.860;2023-03-16T10:50:54;14.20;99.90
21271;DHT22;10795;50.796;3.860;2023-03-16T10:53:28;14.40;99.90
21271;DHT22;10795;50.796;3.860;2023-03-16T10:55:59;14.90;99.90
21271;DHT22;10795;50.796;3.860;2023-03-16T10:58:31;14.70;99.90
21271;DHT22;10795;50.796;3.860;2023-03-16T11:00:58;14.90;99.90
21271;DHT22;10795;50.796;3.860;2023-03-16T11:03:36;14.60;99.90
21271;DHT22;10795;50.796;3.860;2023-03-16T11:06:05;14.60;99.90
21271;DHT22;10795;50.796;3.860;2023-03-16T11:08:37;14.90;99.90
21271;DHT22;10795;50.796;3.860;2023-03-16T11:11:09;14.70;99.90
21271;DHT22;10795;50.796;3.860;2023-03-16T11:13:37;14.10;99.90
21271;DHT22;10795;50.796;3.860;2023-03-16T11:16:26;14.10;99.90
21271;DHT22;10795;50.796;3.860;2023-03-16T11:18:56;13.20;99.90
21271;DHT22;10795;50.796;3.860;2023-03-16T11:24:24;13.80;99.90
21271;DHT22;10795;50.796;3.860;2023-03-16T11:26:57;13.80;99.90
21271;DHT22;10795;50.796;3.860;2023-03-16T11:29:53;14.00;99.90
21271;DHT22;10795;50.796;3.860;2023-03-16T11:32:32;14.00;99.90
21271;DHT22;10795;50.796;3.860;2023-03-16T11:35:00;14.10;99.90
21271;DHT22;10795;50.796;3.860;2023-03-16T11:37:55;13.50;99.90
21271;DHT22;10795;50.796;3.860;2023-03-16T11:40:48;14.10;99.90
21271;DHT22;10795;50.796;3.860;2023-03-16T11:43:39;14.60;99.90
21271;DHT22;10795;50.796;3.860;2023-03-16T11:46:43;14.90;99.90
21271;DHT22;10795;50.796;3.860;2023-03-16T11:52:36;15.30;99.90
21271;DHT22;10795;50.796;3.860;2023-03-16T11:55:33;15.10;99.90
21271;DHT22;10795;50.796;3.860;2023-03-16T12:01:38;15.40;99.90
21271;DHT22;10795;50.796;3.860;2023-03-16T12:07:35;15.10;99.90
21271;DHT22;10795;50.796;3.860;2023-03-16T12:10:05;15.20;99.90
21271;DHT22;10795;50.796;3.860;2023-03-16T12:17:42;15.20;99.90
21271;DHT22;10795;50.796;3.860;2023-03-16T12:20:23;15.90;99.90
21271;DHT22;10795;50.796;3.860;2023-03-16T12:23:19;16.00;99.90
21271;DHT22;10795;50.796;3.860;2023-03-16T12:25:47;15.90;99.90
21271;DHT22;10795;50.796;3.860;2023-03-16T12:28:23;16.40;99.90
21271;DHT22;10795;50.796;3.860;2023-03-16T12:31:09;16.30;99.90
21271;DHT22;10795;50.796;3.860;2023-03-16T12:44:48;16.20;99.90
21271;DHT22;10795;50.796;3.860;2023-03-16T12:49:52;16.10;99.90
21271;DHT22;10795;50.796;3.860;2023-03-16T12:52:18;16.30;99.90
21271;DHT22;10795;50.796;3.860;2023-03-16T12:54:53;15.90;99.90
21271;DHT22;10795;50.796;3.860;2023-03-16T12:57:29;16.50;99.90
21271;DHT22;10795;50.796;3.860;2023-03-16T12:59:58;16.40;99.90
21271;DHT22;10795;50.796;3.860;2023-03-16T13:02:28;16.40;99.90
21271;DHT22;10795;50.796;3.860;2023-03-16T13:05:02;16.70;99.90
21271;DHT22;10795;50.796;3.860;2023-03-16T13:07:32;16.60;99.90
21271;DHT22;10795;50.796;3.860;2023-03-16T13:10:04;16.50;99.90
21271;DHT22;10795;50.796;3.860;2023-03-16T13:12:35;16.70;99.90
21271;DHT22;10795;50.796;3.860;2023-03-16T13:17:50;16.90;99.90
21271;DHT22;10795;50.796;3.860;2023-03-16T13:20:31;16.70;99.90
21271;DHT22;10795;50.796;3.860;2023-03-16T13:25:44;15.80;99.90
21271;DHT22;10795;50.796;3.860;2023-03-16T13:28:22;16.10;99.90
21271;DHT22;10795;50.796;3.860;2023-03-16T13:30:51;16.50;99.90
21271;DHT22;10795;50.796;3.860;2023-03-16T13:33:23;16.60;99.90
21271;DHT22;10795;50.796;3.860;2023-03-16T13:35:51;16.10;99.90
21271;DHT22;10795;50.796;3.860;2023-03-16T13:38:20;16.40;99.90
21271;DHT22;10795;50.796;3.860;2023-03-16T13:40:55;17.00;99.90
21271;DHT22;10795;50.796;3.860;2023-03-16T13:43:24;16.90;99.90
21271;DHT22;10795;50.796;3.860;2023-03-16T13:45:53;16.70;99.90
21271;DHT22;10795;50.796;3.860;2023-03-16T13:48:19;16.20;99.90
21271;DHT22;10795;50.796;3.860;2023-03-16T13:50:53;16.60;99.90
21271;DHT22;10795;50.796;3.860;2023-03-16T13:53:24;16.20;99.90
21271;DHT22;10795;50.796;3.860;2023-03-16T13:55:53;16.50;99.90
21271;DHT22;10795;50.796;3.860;2023-03-16T13:58:27;16.20;99.90
21271;DHT22;10795;50.796;3.860;2023-03-16T14:00:57;15.70;99.90
21271;DHT22;10795;50.796;3.860;2023-03-16T14:03:33;16.00;99.90
21271;DHT22;10795;50.796;3.860;2023-03-16T14:06:01;15.70;99.90
21271;DHT22;10795;50.796;3.860;2023-03-16T14:08:28;15.80;99.90
21271;DHT22;10795;50.796;3.860;2023-03-16T14:10:55;15.80;99.90
21271;DHT22;10795;50.796;3.860;2023-03-16T14:16:12;16.10;99.90
21271;DHT22;10795;50.796;3.860;2023-03-16T14:18:41;16.00;99.90
21271;DHT22;10795;50.796;3.860;2023-03-16T14:21:09;15.60;99.90
21271;DHT22;10795;50.796;3.860;2023-03-16T14:23:44;15.70;99.90
21271;DHT22;10795;50.796;3.860;2023-03-16T14:26:17;16.10;99.90
21271;DHT22;10795;50.796;3.860;2023-03-16T14:29:20;15.80;99.90
21271;DHT22;10795;50.796;3.860;2023-03-16T14:31:49;15.70;99.90
21271;DHT22;10795;50.796;3.860;2023-03-16T14:34:35;15.90;99.90
21271;DHT22;10795;50.796;3.860;2023-03-16T14:37:16;16.50;99.90
21271;DHT22;10795;50.796;3.860;2023-03-16T14:39:56;15.90;99.90
21271;DHT22;10795;50.796;3.860;2023-03-16T14:42:28;15.20;99.90
21271;DHT22;10795;50.796;3.860;2023-03-16T14:44:55;14.90;99.90
21271;DHT22;10795;50.796;3.860;2023-03-16T14:47:27;14.50;99.90
21271;DHT22;10795;50.796;3.860;2023-03-16T14:49:56;14.20;99.90
21271;DHT22;10795;50.796;3.860;2023-03-16T14:52:29;14.40;99.90
21271;DHT22;10795;50.796;3.860;2023-03-16T14:54:59;14.90;99.90
21271;DHT22;10795;50.796;3.860;2023-03-16T14:57:25;14.80;99.90
21271;DHT22;10795;50.796;3.860;2023-03-16T14:59:52;14.90;99.90
21271;DHT22;10795;50.796;3.860;2023-03-16T15:02:29;14.80;99.90
21271;DHT22;10795;50.796;3.860;2023-03-16T15:04:57;15.00;99.90
21271;DHT22;10795;50.796;3.860;2023-03-16T15:07:34;15.00;99.90
21271;DHT22;10795;50.796;3.860;2023-03-16T15:10:06;15.10;99.90
21271;DHT22;10795;50.796;3.860;2023-03-16T15:12:34;15.10;99.90
21271;DHT22;10795;50.796;3.860;2023-03-16T15:15:13;14.90;99.90
21271;DHT22;10795;50.796;3.860;2023-03-16T15:17:41;15.40;99.90
21271;DHT22;10795;50.796;3.860;2023-03-16T15:20:32;15.10;99.90
21271;DHT22;10795;50.796;3.860;2023-03-16T15:23:01;15.10;99.90
21271;DHT22;10795;50.796;3.860;2023-03-16T15:25:34;14.80;99.90
21271;DHT22;10795;50.796;3.860;2023-03-16T15:28:20;14.40;99.90
21271;DHT22;10795;50.796;3.860;2023-03-16T15:30:47;14.70;99.90
21271;DHT22;10795;50.796;3.860;2023-03-16T15:33:14;14.90;99.90
21271;DHT22;10795;50.796;3.860;2023-03-16T15:35:42;14.80;99.90
21271;DHT22;10795;50.796;3.860;2023-03-16T15:38:34;14.50;99.90
21271;DHT22;10795;50.796;3.860;2023-03-16T15:41:01;14.60;99.90
21271;DHT22;10795;50.796;3.860;2023-03-16T15:43:29;14.70;99.90
21271;DHT22;10795;50.796;3.860;2023-03-16T15:45:56;14.60;99.90
21271;DHT22;10795;50.796;3.860;2023-03-16T15:48:23;14.60;99.90
21271;DHT22;10795;50.796;3.860;2023-03-16T15:50:55;14.40;99.90
21271;DHT22;10795;50.796;3.860;2023-03-16T15:53:46;14.50;99.90
21271;DHT22;10795;50.796;3.860;2023-03-16T15:56:14;14.60;99.90
21271;DHT22;10795;50.796;3.860;2023-03-16T15:58:43;14.40;99.90
21271;DHT22;10795;50.796;3.860;2023-03-16T16:01:26;14.60;99.90
21271;DHT22;10795;50.796;3.860;2023-03-16T16:03:54;14.80;99.90
21271;DHT22;10795;50.796;3.860;2023-03-16T16:06:20;14.50;99.90
21271;DHT22;10795;50.796;3.860;2023-03-16T16:08:47;14.60;99.90
21271;DHT22;10795;50.796;3.860;2023-03-16T16:11:20;14.70;99.90
21271;DHT22;10795;50.796;3.860;2023-03-16T16:13:48;14.50;99.90
21271;DHT22;10795;50.796;3.860;2023-03-16T16:16:16;14.40;99.90
21271;DHT22;10795;50.796;3.860;2023-03-16T16:18:42;14.30;99.90
21271;DHT22;10795;50.796;3.860;2023-03-16T16:21:27;14.00;99.90
21271;DHT22;10795;50.796;3.860;2023-03-16T16:23:57;14.00;99.90
21271;DHT22;10795;50.796;3.860;2023-03-16T16:26:27;13.80;99.90
21271;DHT22;10795;50.796;3.860;2023-03-16T16:28:55;13.90;99.90
21271;DHT22;10795;50.796;3.860;2023-03-16T16:31:24;13.70;99.90
21271;DHT22;10795;50.796;3.860;2023-03-16T16:33:50;13.90;99.90
21271;DHT22;10795;50.796;3.860;2023-03-16T16:36:17;13.90;99.90
21271;DHT22;10795;50.796;3.860;2023-03-16T16:38:48;13.70;99.90
21271;DHT22;10795;50.796;3.860;2023-03-16T16:41:40;13.50;99.90
21271;DHT22;10795;50.796;3.860;2023-03-16T16:44:24;13.70;99.90
21271;DHT22;10795;50.796;3.860;2023-03-16T16:46:52;13.70;99.90
21271;DHT22;10795;50.796;3.860;2023-03-16T16:49:27;13.60;99.90
21271;DHT22;10795;50.796;3.860;2023-03-16T16:51:55;13.50;99.90
21271;DHT22;10795;50.796;3.860;2023-03-16T16:54:23;13.90;99.90
21271;DHT22;10795;50.796;3.860;2023-03-16T16:56:51;13.80;99.90
21271;DHT22;10795;50.796;3.860;2023-03-16T16:59:20;13.80;99.90
21271;DHT22;10795;50.796;3.860;2023-03-16T17:01:47;13.70;99.90
21271;DHT22;10795;50.796;3.860;2023-03-16T17:04:17;13.70;99.90
21271;DHT22;10795;50.796;3.860;2023-03-16T17:06:44;13.60;99.90
21271;DHT22;10795;50.796;3.860;2023-03-16T17:09:10;13.50;99.90
21271;DHT22;10795;50.796;3.860;2023-03-16T17:11:40;13.60;99.90
21271;DHT22;10795;50.796;3.860;2023-03-16T17:14:07;13.50;99.90
21271;DHT22;10795;50.796;3.860;2023-03-16T17:16:35;13.40;99.90
21271;DHT22;10795;50.796;3.860;2023-03-16T17:19:05;13.40;99.90
21271;DHT22;10795;50.796;3.860;2023-03-16T17:21:32;13.30;99.90
21271;DHT22;10795;50.796;3.860;2023-03-16T17:23:58;13.30;99.90
21271;DHT22;10795;50.796;3.860;2023-03-16T17:26:31;13.20;99.90
21271;DHT22;10795;50.796;3.860;2023-03-16T17:29:05;13.30;99.90
21271;DHT22;10795;50.796;3.860;2023-03-16T17:31:37;13.10;99.90
21271;DHT22;10795;50.796;3.860;2023-03-16T17:34:21;13.10;99.90
21271;DHT22;10795;50.796;3.860;2023-03-16T17:36:47;12.80;99.90
21271;DHT22;10795;50.796;3.860;2023-03-16T17:39:25;12.90;99.90
21271;DHT22;10795;50.796;3.860;2023-03-16T17:42:01;12.90;99.90
21271;DHT22;10795;50.796;3.860;2023-03-16T17:44:39;13.00;99.90
21271;DHT22;10795;50.796;3.860;2023-03-16T17:47:14;12.80;99.90
21271;DHT22;10795;50.796;3.860;2023-03-16T17:49:40;12.70;99.90
21271;DHT22;10795;50.796;3.860;2023-03-16T17:52:14;12.70;99.90
21271;DHT22;10795;50.796;3.860;2023-03-16T17:54:46;12.70;99.90
21271;DHT22;10795;50.796;3.860;2023-03-16T17:57:32;12.60;99.90
21271;DHT22;10795;50.796;3.860;2023-03-16T18:00:00;12.60;99.90
21271;DHT22;10795;50.796;3.860;2023-03-16T18:04:59;12.40;99.90
21271;DHT22;10795;50.796;3.860;2023-03-16T18:07:25;12.30;99.90
21271;DHT22;10795;50.796;3.860;2023-03-16T18:09:51;12.60;99.90
21271;DHT22;10795;50.796;3.860;2023-03-16T18:12:17;12.60;99.90
21271;DHT22;10795;50.796;3.860;2023-03-16T18:14:43;12.40;99.90
21271;DHT22;10795;50.796;3.860;2023-03-16T18:17:26;12.30;99.90
21271;DHT22;10795;50.796;3.860;2023-03-16T18:19:53;12.20;99.90
21271;DHT22;10795;50.796;3.860;2023-03-16T18:22:21;12.10;99.90
21271;DHT22;10795;50.796;3.860;2023-03-16T18:24:50;12.10;99.90
21271;DHT22;10795;50.796;3.860;2023-03-16T18:27:16;12.20;99.90
21271;DHT22;10795;50.796;3.860;2023-03-16T18:29:42;12.10;99.90
21271;DHT22;10795;50.796;3.860;2023-03-16T18:32:28;12.00;99.90
21271;DHT22;10795;50.796;3.860;2023-03-16T18:34:56;12.10;99.90
21271;DHT22;10795;50.796;3.860;2023-03-16T18:37:24;12.10;99.90
21271;DHT22;10795;50.796;3.860;2023-03-16T18:39:51;12.00;99.90
21271;DHT22;10795;50.796;3.860;2023-03-16T18:42:22;12.00;99.90
21271;DHT22;10795;50.796;3.860;2023-03-16T18:44:48;12.00;99.90
21271;DHT22;10795;50.796;3.860;2023-03-16T18:47:19;11.90;99.90
21271;DHT22;10795;50.796;3.860;2023-03-16T18:49:45;12.00;99.90
21271;DHT22;10795;50.796;3.860;2023-03-16T18:52:22;12.00;99.90
21271;DHT22;10795;50.796;3.860;2023-03-16T18:54:49;12.10;99.90
21271;DHT22;10795;50.796;3.860;2023-03-16T18:57:21;12.10;99.90
21271;DHT22;10795;50.796;3.860;2023-03-16T18:59:47;11.90;99.90
21271;DHT22;10795;50.796;3.860;2023-03-16T19:02:34;12.10;99.90
21271;DHT22;10795;50.796;3.860;2023-03-16T19:05:04;12.20;99.90
21271;DHT22;10795;50.796;3.860;2023-03-16T19:07:41;12.30;99.90
21271;DHT22;10795;50.796;3.860;2023-03-16T19:10:33;12.10;99.90
21271;DHT22;10795;50.796;3.860;2023-03-16T19:13:01;12.20;99.90
21271;DHT22;10795;50.796;3.860;2023-03-16T19:15:28;12.00;99.90
21271;DHT22;10795;50.796;3.860;2023-03-16T19:17:55;12.00;99.90
21271;DHT22;10795;50.796;3.860;2023-03-16T19:20:28;12.10;99.90
21271;DHT22;10795;50.796;3.860;2023-03-16T19:23:03;12.00;99.90
21271;DHT22;10795;50.796;3.860;2023-03-16T19:25:36;12.10;99.90
21271;DHT22;10795;50.796;3.860;2023-03-16T19:28:04;12.00;99.90
21271;DHT22;10795;50.796;3.860;2023-03-16T19:30:31;12.00;99.90
21271;DHT22;10795;50.796;3.860;2023-03-16T19:32:58;12.00;99.90
21271;DHT22;10795;50.796;3.860;2023-03-16T19:35:26;11.90;99.90
21271;DHT22;10795;50.796;3.860;2023-03-16T19:37:52;11.80;99.90
21271;DHT22;10795;50.796;3.860;2023-03-16T19:40:21;11.90;99.90
21271;DHT22;10795;50.796;3.860;2023-03-16T19:42:48;11.90;99.90
21271;DHT22;10795;50.796;3.860;2023-03-16T19:45:23;12.00;99.90
21271;DHT22;10795;50.796;3.860;2023-03-16T19:47:50;12.00;99.90
21271;DHT22;10795;50.796;3.860;2023-03-16T19:50:19;12.10;99.90
21271;DHT22;10795;50.796;3.860;2023-03-16T19:52:46;12.20;99.90
21271;DHT22;10795;50.796;3.860;2023-03-16T19:55:14;12.10;99.90
21271;DHT22;10795;50.796;3.860;2023-03-16T19:57:40;12.10;99.90
21271;DHT22;10795;50.796;3.860;2023-03-16T20:00:18;12.10;99.90
21271;DHT22;10795;50.796;3.860;2023-03-16T20:02:46;12.10;99.90
21271;DHT22;10795;50.796;3.860;2023-03-16T20:05:18;12.10;99.90
21271;DHT22;10795;50.796;3.860;2023-03-16T20:07:47;12.00;99.90
21271;DHT22;10795;50.796;3.860;2023-03-16T20:10:21;12.10;99.90
21271;DHT22;10795;50.796;3.860;2023-03-16T20:12:56;12.10;99.90
21271;DHT22;10795;50.796;3.860;2023-03-16T20:15:26;12.10;99.90
21271;DHT22;10795;50.796;3.860;2023-03-16T20:17:53;12.10;99.90
21271;DHT22;10795;50.796;3.860;2023-03-16T20:20:28;12.20;99.90
21271;DHT22;10795;50.796;3.860;2023-03-16T20:22:55;12.10;99.90
21271;DHT22;10795;50.796;3.860;2023-03-16T20:25:28;12.10;99.90
21271;DHT22;10795;50.796;3.860;2023-03-16T20:27:56;12.20;99.90
21271;DHT22;10795;50.796;3.860;2023-03-16T20:30:24;12.10;99.90
21271;DHT22;10795;50.796;3.860;2023-03-16T20:32:50;12.20;99.90
21271;DHT22;10795;50.796;3.860;2023-03-16T20:35:28;12.20;99.90
21271;DHT22;10795;50.796;3.860;2023-03-16T20:37:57;12.10;99.90
21271;DHT22;10795;50.796;3.860;2023-03-16T20:40:23;12.00;99.90
21271;DHT22;10795;50.796;3.860;2023-03-16T20:42:50;12.00;99.90
21271;DHT22;10795;50.796;3.860;2023-03-16T20:45:25;12.10;99.90
21271;DHT22;10795;50.796;3.860;2023-03-16T20:47:52;12.20;99.90
21271;DHT22;10795;50.796;3.860;2023-03-16T20:50:26;12.20;99.90
21271;DHT22;10795;50.796;3.860;2023-03-16T20:52:53;12.00;99.90
21271;DHT22;10795;50.796;3.860;2023-03-16T20:55:23;12.00;99.90
21271;DHT22;10795;50.796;3.860;2023-03-16T20:57:50;12.10;99.90
21271;DHT22;10795;50.796;3.860;2023-03-16T21:02:45;12.30;99.90
21271;DHT22;10795;50.796;3.860;2023-03-16T21:05:12;12.30;99.90
21271;DHT22;10795;50.796;3.860;2023-03-16T21:07:40;12.20;99.90
21271;DHT22;10795;50.796;3.860;2023-03-16T21:10:07;12.20;99.90
21271;DHT22;10795;50.796;3.860;2023-03-16T21:12:34;12.30;99.90
21271;DHT22;10795;50.796;3.860;2023-03-16T21:15:02;12.20;99.90
21271;DHT22;10795;50.796;3.860;2023-03-16T21:17:35;12.30;99.90
21271;DHT22;10795;50.796;3.860;2023-03-16T21:20:06;12.30;99.90
21271;DHT22;10795;50.796;3.860;2023-03-16T21:22:37;12.40;99.90
21271;DHT22;10795;50.796;3.860;2023-03-16T21:25:04;12.40;99.90
21271;DHT22;10795;50.796;3.860;2023-03-16T21:27:31;12.40;99.90
21271;DHT22;10795;50.796;3.860;2023-03-16T21:30:01;12.40;99.90
21271;DHT22;10795;50.796;3.860;2023-03-16T21:32:28;12.40;99.90
21271;DHT22;10795;50.796;3.860;2023-03-16T21:34:55;12.20;99.90
21271;DHT22;10795;50.796;3.860;2023-03-16T21:37:22;12.30;99.90
21271;DHT22;10795;50.796;3.860;2023-03-16T21:39:49;12.30;99.90
21271;DHT22;10795;50.796;3.860;2023-03-16T21:42:17;12.10;99.90
21271;DHT22;10795;50.796;3.860;2023-03-16T21:44:43;12.10;99.90
21271;DHT22;10795;50.796;3.860;2023-03-16T21:47:25;12.00;99.90
21271;DHT22;10795;50.796;3.860;2023-03-16T21:49:52;12.00;99.90
21271;DHT22;10795;50.796;3.860;2023-03-16T21:52:24;11.80;99.90
21271;DHT22;10795;50.796;3.860;2023-03-16T21:54:52;12.00;99.90
21271;DHT22;10795;50.796;3.860;2023-03-16T21:57:18;11.80;99.90
21271;DHT22;10795;50.796;3.860;2023-03-16T21:59:44;11.80;99.90
21271;DHT22;10795;50.796;3.860;2023-03-16T22:02:21;11.80;99.90
21271;DHT22;10795;50.796;3.860;2023-03-16T22:04:48;11.90;99.90
21271;DHT22;10795;50.796;3.860;2023-03-16T22:07:14;11.90;99.90
21271;DHT22;10795;50.796;3.860;2023-03-16T22:09:41;11.90;99.90
21271;DHT22;10795;50.796;3.860;2023-03-16T22:12:11;11.80;99.90
21271;DHT22;10795;50.796;3.860;2023-03-16T22:14:38;11.90;99.90
21271;DHT22;10795;50.796;3.860;2023-03-16T22:17:04;11.80;99.90
21271;DHT22;10795;50.796;3.860;2023-03-16T22:19:31;12.10;99.90
21271;DHT22;10795;50.796;3.860;2023-03-16T22:21:58;12.00;99.90
21271;DHT22;10795;50.796;3.860;2023-03-16T22:24:26;12.00;99.90
21271;DHT22;10795;50.796;3.860;2023-03-16T22:26:53;11.90;99.90
21271;DHT22;10795;50.796;3.860;2023-03-16T22:31:46;11.80;99.90
21271;DHT22;10795;50.796;3.860;2023-03-16T22:34:29;11.60;99.90
21271;DHT22;10795;50.796;3.860;2023-03-16T22:36:56;11.50;99.90
21271;DHT22;10795;50.796;3.860;2023-03-16T22:39:22;11.70;99.90
21271;DHT22;10795;50.796;3.860;2023-03-16T22:41:49;11.60;99.90
21271;DHT22;10795;50.796;3.860;2023-03-16T22:44:20;11.90;99.90
21271;DHT22;10795;50.796;3.860;2023-03-16T22:46:47;11.70;99.90
21271;DHT22;10795;50.796;3.860;2023-03-16T22:49:24;11.70;99.90
21271;DHT22;10795;50.796;3.860;2023-03-16T22:51:53;11.60;99.90
21271;DHT22;10795;50.796;3.860;2023-03-16T22:54:24;11.60;99.90
21271;DHT22;10795;50.796;3.860;2023-03-16T22:56:52;11.50;99.90
21271;DHT22;10795;50.796;3.860;2023-03-16T22:59:21;11.60;99.90
21271;DHT22;10795;50.796;3.860;2023-03-16T23:01:48;11.60;99.90
21271;DHT22;10795;50.796;3.860;2023-03-16T23:04:23;11.70;99.90
21271;DHT22;10795;50.796;3.860;2023-03-16T23:06:52;11.30;99.90
21271;DHT22;10795;50.796;3.860;2023-03-16T23:09:18;11.10;99.90
21271;DHT22;10795;50.796;3.860;2023-03-16T23:11:47;11.10;99.90
21271;DHT22;10795;50.796;3.860;2023-03-16T23:14:15;11.30;99.90
21271;DHT22;10795;50.796;3.860;2023-03-16T23:16:43;11.30;99.90
21271;DHT22;10795;50.796;3.860;2023-03-16T23:19:32;11.00;99.90
21271;DHT22;10795;50.796;3.860;2023-03-16T23:22:01;11.00;99.90
21271;DHT22;10795;50.796;3.860;2023-03-16T23:24:28;11.20;99.90
21271;DHT22;10795;50.796;3.860;2023-03-16T23:26:54;11.20;99.90
21271;DHT22;10795;50.796;3.860;2023-03-16T23:29:20;11.00;99.90
21271;DHT22;10795;50.796;3.860;2023-03-16T23:31:47;10.90;99.90
21271;DHT22;10795;50.796;3.860;2023-03-16T23:34:16;11.10;99.90
21271;DHT22;10795;50.796;3.860;2023-03-16T23:36:43;10.80;99.90
21271;DHT22;10795;50.796;3.860;2023-03-16T23:39:09;10.90;99.90
21271;DHT22;10795;50.796;3.860;2023-03-16T23:41:36;11.00;99.90
21271;DHT22;10795;50.796;3.860;2023-03-16T23:44:04;10.80;99.90
21271;DHT22;10795;50.796;3.860;2023-03-16T23:46:32;10.60;99.90
21271;DHT22;10795;50.796;3.860;2023-03-16T23:49:01;10.40;99.90